Time;durP1;ratioP1;P1;durP2;ratioP2;P2;SDS_P1;SDS_P2;PMS_P1;PMS_P2;Temp;Humidity;BMP_temperature;BMP_pressure;BME280_temperature;BME280_humidity;BME280_pressure;Samples;Min_cycle;Max_cycle;Signal;HPM_P1;HPM_P2
2023/03/11 00:00:21;;;;;;;1.67;1.20;;;;;;;1.64;76.30;99419.22;5028780;28;20697;-70
2023/03/11 00:02:50;;;;;;;1.27;0.83;;;;;;;1.75;74.00;99414.34;5029222;28;20198;-70
2023/03/11 00:05:23;;;;;;;2.60;0.93;;;;;;;1.82;73.61;99424.16;5018974;28;20242;-70
2023/03/11 00:07:50;;;;;;;1.07;0.87;;;;;;;1.83;73.19;99429.41;5024231;28;20209;-70
2023/03/11 00:10:26;;;;;;;1.10;0.90;;;;;;;1.83;72.81;99431.13;5026284;28;20235;-71
2023/03/11 00:12:56;;;;;;;3.33;1.10;;;;;;;1.85;72.68;99438.19;5023082;28;20198;-71
2023/03/11 00:15:23;;;;;;;3.17;1.20;;;;;;;1.87;73.03;99444.34;5026133;28;20651;-71
2023/03/11 00:17:50;;;;;;;1.53;1.00;;;;;;;1.85;72.39;99440.78;5026633;28;20257;-70
2023/03/11 00:20:22;;;;;;;1.13;0.80;;;;;;;1.87;72.54;99444.34;5021976;28;20571;-71
2023/03/11 00:22:50;;;;;;;2.37;1.10;;;;;;;1.86;73.00;99460.84;5024997;28;20254;-70
2023/03/11 00:25:18;;;;;;;4.93;1.00;;;;;;;1.84;73.49;99464.25;5027384;28;20247;-70
2023/03/11 00:27:44;;;;;;;2.23;0.90;;;;;;;1.77;74.61;99462.25;5022929;28;20306;-70
2023/03/11 00:30:13;;;;;;;2.03;1.00;;;;;;;1.70;75.80;99468.13;5029993;28;20218;-70
2023/03/11 00:32:40;;;;;;;1.23;1.00;;;;;;;1.66;76.60;99467.13;5026247;28;20227;-71
2023/03/11 00:35:07;;;;;;;2.97;1.20;;;;;;;1.58;77.38;99468.56;5022741;28;20203;-70
2023/03/11 00:37:34;;;;;;;2.97;1.07;;;;;;;1.53;79.23;99484.06;5025469;28;20464;-70
2023/03/11 00:40:00;;;;;;;1.57;1.00;;;;;;;1.47;79.44;99488.19;5023250;28;20224;-70
2023/03/11 00:42:26;;;;;;;2.00;1.03;;;;;;;1.43;79.63;99488.94;5024240;28;20229;-71
2023/03/11 00:44:53;;;;;;;2.97;0.90;;;;;;;1.37;80.74;99484.38;5026813;28;20264;-70
2023/03/11 00:47:19;;;;;;;5.40;1.20;;;;;;;1.27;81.17;99487.50;5027500;28;20253;-70
2023/03/11 00:49:45;;;;;;;1.20;0.97;;;;;;;1.35;79.63;99479.97;5017077;28;20260;-70
2023/03/11 00:52:12;;;;;;;2.23;0.93;;;;;;;1.42;79.76;99500.19;5022284;28;20705;-70
2023/03/11 00:54:38;;;;;;;1.50;1.00;;;;;;;1.42;79.28;99502.81;5025493;28;20268;-70
2023/03/11 00:57:04;;;;;;;1.23;0.90;;;;;;;1.45;79.50;99509.00;5020688;28;20250;-70
2023/03/11 00:59:35;;;;;;;3.40;1.10;;;;;;;1.55;79.21;99505.00;5024194;28;20195;-70
2023/03/11 01:02:01;;;;;;;3.60;1.10;;;;;;;1.59;78.03;99509.47;5024295;28;20207;-70
2023/03/11 01:04:27;;;;;;;1.23;0.90;;;;;;;1.56;77.62;99518.09;5020824;28;20599;-71
2023/03/11 01:06:54;;;;;;;2.57;1.10;;;;;;;1.59;78.19;99519.91;5018112;28;20595;-71
2023/03/11 01:09:20;;;;;;;1.00;0.90;;;;;;;1.64;78.55;99530.56;5021300;28;20232;-70
2023/03/11 01:11:46;;;;;;;2.50;1.23;;;;;;;1.59;79.46;99525.13;5029729;28;20217;-70
2023/03/11 01:14:13;;;;;;;1.00;1.00;;;;;;;1.45;81.93;99527.28;5029664;28;20582;-70
2023/03/11 01:16:39;;;;;;;1.87;1.00;;;;;;;1.25;83.73;99520.47;5022460;28;20245;-70
2023/03/11 01:19:05;;;;;;;3.30;1.00;;;;;;;1.18;85.44;99508.91;5026958;28;20272;-70
2023/03/11 01:21:32;;;;;;;2.70;0.90;;;;;;;1.07;85.80;99505.03;5025963;28;20303;-70
2023/03/11 01:23:58;;;;;;;3.47;1.30;;;;;;;1.08;86.19;99498.97;5021583;28;20205;-70
2023/03/11 01:26:25;;;;;;;3.03;1.23;;;;;;;1.08;87.10;99496.38;5025509;28;20233;-70
2023/03/11 01:28:51;;;;;;;3.17;1.10;;;;;;;1.12;86.31;99497.38;5019019;28;20621;-70
2023/03/11 01:31:17;;;;;;;2.87;1.30;;;;;;;1.04;86.39;99489.28;5026644;28;20256;-70
2023/03/11 01:33:44;;;;;;;3.33;1.00;;;;;;;1.09;85.53;99499.88;5022146;28;20192;-70
2023/03/11 01:36:10;;;;;;;1.60;1.00;;;;;;;1.13;84.64;99500.03;5028773;28;20283;-70
2023/03/11 01:38:36;;;;;;;1.50;1.00;;;;;;;1.14;85.10;99504.41;5028623;28;20202;-70
2023/03/11 01:41:03;;;;;;;2.60;1.10;;;;;;;1.12;85.20;99503.47;5025573;28;20221;-71
2023/03/11 01:43:36;;;;;;;2.50;1.00;;;;;;;1.17;85.27;99504.53;5026501;28;20285;-70
2023/03/11 01:46:27;;;;;;;1.47;1.10;;;;;;;1.32;83.52;99516.38;5032928;28;20732;-70
2023/03/11 01:48:56;;;;;;;3.27;1.33;;;;;;;1.38;82.30;99527.00;5031355;28;20201;-70
2023/03/11 01:51:22;;;;;;;3.37;1.10;;;;;;;1.36;81.24;99519.13;5028146;28;20296;-71
2023/03/11 01:53:49;;;;;;;1.53;1.10;;;;;;;1.38;81.91;99535.72;5031086;28;20204;-70
2023/03/11 01:56:15;;;;;;;1.93;1.10;;;;;;;1.40;81.67;99535.78;5028423;28;20206;-70
2023/03/11 01:58:45;;;;;;;4.43;1.40;;;;;;;1.42;82.54;99547.16;5028430;28;20222;-70
2023/03/11 02:01:11;;;;;;;4.73;1.20;;;;;;;1.40;82.27;99543.59;5028069;28;20223;-70
2023/03/11 02:03:40;;;;;;;1.97;1.10;;;;;;;1.43;82.16;99544.59;5022543;28;20206;-70
2023/03/11 02:06:12;;;;;;;4.80;1.23;;;;;;;1.46;81.46;99542.09;5024335;28;20225;-70
2023/03/11 02:08:41;;;;;;;2.23;0.93;;;;;;;1.53;80.54;99537.97;5026667;28;20710;-70
2023/03/11 02:11:10;;;;;;;2.03;1.30;;;;;;;1.42;80.86;99541.94;5029075;28;20230;-70
2023/03/11 02:13:39;;;;;;;2.47;1.23;;;;;;;1.47;80.11;99543.88;5031283;28;20193;-70
2023/03/11 02:16:06;;;;;;;3.70;1.47;;;;;;;1.47;80.76;99535.16;5024533;28;20191;-70
2023/03/11 02:18:33;;;;;;;1.33;1.13;;;;;;;1.49;80.42;99543.94;5026153;28;20230;-70
2023/03/11 02:21:27;;;;;;;1.80;1.13;;;;;;;1.50;80.96;99536.16;5028041;28;20251;-70
2023/03/11 02:24:06;;;;;;;2.47;1.10;;;;;;;1.47;80.88;99536.03;5029331;28;20205;-70
2023/03/11 02:26:42;;;;;;;3.30;1.10;;;;;;;1.48;80.64;99536.94;5030664;28;20218;-71
2023/03/11 02:29:10;;;;;;;2.60;0.97;;;;;;;1.58;80.16;99536.41;5022754;28;20832;-71
2023/03/11 02:31:39;;;;;;;5.43;1.20;;;;;;;1.53;80.42;99533.66;5030092;28;20218;-70
2023/03/11 02:34:22;;;;;;;3.17;1.30;;;;;;;1.51;80.20;99530.09;5028389;28;20292;-70
2023/03/11 02:36:48;;;;;;;1.80;1.20;;;;;;;1.54;79.99;99527.59;5022625;28;20674;-71
2023/03/11 02:39:15;;;;;;;4.33;1.20;;;;;;;1.62;79.79;99534.81;5030790;28;20198;-70
2023/03/11 02:41:45;;;;;;;3.90;1.40;;;;;;;1.57;79.34;99535.53;5025633;28;20253;-70
2023/03/11 02:44:14;;;;;;;5.70;1.50;;;;;;;1.60;80.01;99536.47;5029857;28;20208;-70
2023/03/11 02:46:41;;;;;;;4.43;1.43;;;;;;;1.58;80.57;99536.41;5030023;28;20262;-70
2023/03/11 02:49:09;;;;;;;3.57;1.20;;;;;;;1.57;79.95;99545.06;5023833;28;20207;-70
2023/03/11 02:51:35;;;;;;;5.37;1.27;;;;;;;1.62;80.27;99553.97;5030773;28;20292;-71
2023/03/11 02:54:04;;;;;;;3.73;1.30;;;;;;;1.56;80.96;99554.63;5025502;28;20673;-71
2023/03/11 02:56:30;;;;;;;1.63;1.10;;;;;;;1.52;81.99;99567.50;5030536;28;20222;-71
2023/03/11 02:58:57;;;;;;;3.80;1.40;;;;;;;1.50;82.70;99558.75;5024027;28;20238;-70
2023/03/11 03:01:23;;;;;;;4.67;1.20;;;;;;;1.41;82.42;99561.91;5023223;28;20247;-71
2023/03/11 03:03:50;;;;;;;3.63;1.57;;;;;;;1.37;82.17;99570.47;5030526;28;20198;-70
2023/03/11 03:06:16;;;;;;;5.27;1.13;;;;;;;1.32;83.70;99576.34;5025694;28;20223;-70
2023/03/11 03:08:43;;;;;;;4.80;1.40;;;;;;;1.28;84.20;99579.69;5023072;28;20207;-70
2023/03/11 03:11:09;;;;;;;2.80;1.40;;;;;;;1.30;83.56;99575.41;5030483;28;20242;-70
2023/03/11 03:13:36;;;;;;;1.97;1.20;;;;;;;1.35;83.65;99585.16;5024860;28;20641;-70
2023/03/11 03:16:02;;;;;;;3.97;1.57;;;;;;;1.27;84.08;99588.34;5030080;28;20245;-71
2023/03/11 03:18:29;;;;;;;1.60;1.10;;;;;;;1.20;84.02;99600.22;5022861;28;20216;-70
2023/03/11 03:20:55;;;;;;;6.63;1.70;;;;;;;1.19;84.09;99591.53;5029134;28;20273;-70
2023/03/11 03:23:22;;;;;;;2.70;1.40;;;;;;;1.21;83.55;99596.81;5025979;28;20199;-70
2023/03/11 03:25:48;;;;;;;4.70;1.60;;;;;;;1.25;82.29;99594.38;5023524;28;20200;-71
2023/03/11 03:28:15;;;;;;;3.83;1.40;;;;;;;1.17;83.01;99600.13;5026429;28;20223;-70
2023/03/11 03:30:43;;;;;;;4.43;1.50;;;;;;;1.16;83.49;99601.84;5031098;28;20720;-70
2023/03/11 03:33:10;;;;;;;4.37;1.53;;;;;;;1.15;83.11;99604.38;5028427;28;20224;-70
2023/03/11 03:35:40;;;;;;;3.80;1.77;;;;;;;1.23;82.37;99600.38;5029315;28;20240;-70
2023/03/11 03:38:07;;;;;;;5.53;1.63;;;;;;;1.26;81.15;99603.09;5030328;28;20281;-70
2023/03/11 03:40:34;;;;;;;2.30;1.30;;;;;;;1.28;81.27;99603.16;5030681;28;20225;-70
2023/03/11 03:43:00;;;;;;;5.13;1.70;;;;;;;1.31;81.77;99613.69;5022313;28;20247;-70
2023/03/11 03:45:26;;;;;;;2.80;1.67;;;;;;;1.25;81.66;99602.22;5029781;28;20206;-70
2023/03/11 03:47:53;;;;;;;5.60;1.60;;;;;;;1.20;82.44;99600.22;5030742;28;20218;-70
2023/03/11 03:50:19;;;;;;;3.80;1.40;;;;;;;1.22;82.01;99603.81;5020225;28;20260;-70
2023/03/11 03:52:46;;;;;;;4.33;1.80;;;;;;;1.16;81.72;99594.00;5030025;28;20207;-71
2023/03/11 03:55:12;;;;;;;3.47;1.47;;;;;;;1.13;82.02;99606.94;5022571;28;20202;-70
2023/03/11 03:57:39;;;;;;;6.37;2.47;;;;;;;1.09;82.32;99604.16;5029612;28;20217;-70
2023/03/11 04:00:08;;;;;;;2.27;1.70;;;;;;;1.03;82.12;99598.72;5021193;28;20234;-70
2023/03/11 04:02:34;;;;;;;4.93;1.83;;;;;;;1.10;82.23;99600.72;5028734;28;20553;-70
2023/03/11 04:05:01;;;;;;;5.23;1.80;;;;;;;1.13;81.15;99612.16;5029889;28;21040;-71
2023/03/11 04:07:27;;;;;;;5.53;1.77;;;;;;;1.09;81.47;99614.59;5021464;28;20675;-70
2023/03/11 04:09:54;;;;;;;3.63;1.90;;;;;;;1.05;81.19;99621.41;5028183;28;20225;-70
2023/03/11 04:12:20;;;;;;;3.70;1.57;;;;;;;1.03;81.08;99623.06;5027189;28;20228;-70
2023/03/11 04:14:47;;;;;;;6.23;1.77;;;;;;;0.92;82.32;99632.19;5025179;28;20227;-71
2023/03/11 04:17:16;;;;;;;2.93;1.70;;;;;;;0.88;82.75;99636.41;5024390;28;20201;-70
2023/03/11 04:19:43;;;;;;;5.33;1.70;;;;;;;0.92;82.83;99633.09;5029166;28;20230;-70
2023/03/11 04:22:09;;;;;;;3.97;1.47;;;;;;;1.00;81.43;99635.09;5019706;28;20280;-70
2023/03/11 04:24:36;;;;;;;6.20;1.90;;;;;;;1.01;81.24;99639.47;5030112;28;20206;-70
2023/03/11 04:27:02;;;;;;;3.47;1.83;;;;;;;1.00;81.38;99646.41;5027304;28;20219;-70
2023/03/11 04:29:29;;;;;;;7.13;1.90;;;;;;;0.95;80.45;99637.53;5025087;28;20686;-70
2023/03/11 04:31:55;;;;;;;4.37;1.90;;;;;;;1.12;79.89;99649.50;5018554;28;20655;-70
2023/03/11 04:34:21;;;;;;;4.37;1.80;;;;;;;1.12;80.05;99636.44;5026667;28;20199;-70
2023/03/11 04:36:51;;;;;;;4.20;1.97;;;;;;;1.08;80.00;99642.38;5029781;28;20214;-70
2023/03/11 04:39:17;;;;;;;4.20;1.60;;;;;;;1.06;80.04;99637.94;5020926;28;20234;-70
2023/03/11 04:41:44;;;;;;;3.53;1.50;;;;;;;1.07;79.49;99653.63;5028741;28;20218;-70
2023/03/11 04:44:10;;;;;;;8.60;2.23;;;;;;;0.98;80.09;99650.69;5027124;28;20659;-70
2023/03/11 04:46:36;;;;;;;4.20;1.83;;;;;;;0.99;80.04;99654.19;5028936;28;20253;-70
2023/03/11 04:49:03;;;;;;;3.87;1.80;;;;;;;0.92;81.24;99642.63;5029497;28;20210;-70
2023/03/11 04:51:30;;;;;;;6.43;1.67;;;;;;;0.98;80.55;99653.28;5025574;28;20226;-70
2023/03/11 04:53:56;;;;;;;4.87;1.80;;;;;;;1.05;79.35;99657.03;5028459;28;20202;-70
2023/03/11 04:56:22;;;;;;;7.23;1.83;;;;;;;0.94;80.52;99648.78;5021645;28;20191;-70
2023/03/11 04:58:49;;;;;;;6.37;2.10;;;;;;;0.81;80.91;99647.41;5024907;28;20662;-70
2023/03/11 05:01:15;;;;;;;4.43;2.23;;;;;;;0.70;81.54;99660.81;5028167;28;20233;-70
2023/03/11 05:03:42;;;;;;;2.80;1.87;;;;;;;0.69;80.25;99657.31;5024315;28;20210;-70
2023/03/11 05:06:08;;;;;;;4.23;1.90;;;;;;;0.49;81.10;99666.94;5028850;28;20491;-70
2023/03/11 05:08:34;;;;;;;4.47;2.30;;;;;;;0.28;82.34;99666.94;5025041;28;20254;-70
2023/03/11 05:11:01;;;;;;;2.73;1.67;;;;;;;0.22;83.01;99661.47;5029100;28;20290;-70
2023/03/11 05:13:28;;;;;;;5.67;1.80;;;;;;;0.29;82.14;99667.81;5021661;28;20232;-70
2023/03/11 05:15:54;;;;;;;3.90;2.00;;;;;;;0.21;82.84;99671.81;5033106;28;20251;-70
2023/03/11 05:18:21;;;;;;;4.93;2.07;;;;;;;0.07;83.10;99671.22;5025049;28;20201;-71
2023/03/11 05:20:47;;;;;;;5.33;1.77;;;;;;;0.04;83.59;99668.50;5032512;28;20251;-70
2023/03/11 05:23:13;;;;;;;4.57;1.80;;;;;;;-0.17;83.99;99676.25;5031829;28;20201;-71
2023/03/11 05:25:40;;;;;;;4.27;2.07;;;;;;;-0.24;85.15;99679.41;5024758;28;20572;-71
2023/03/11 05:28:06;;;;;;;6.50;2.10;;;;;;;-0.43;85.78;99684.56;5029288;28;20259;-70
2023/03/11 05:30:33;;;;;;;5.83;1.80;;;;;;;-0.59;87.02;99690.81;5032615;28;20266;-70
2023/03/11 05:32:59;;;;;;;3.73;1.90;;;;;;;-0.69;87.20;99688.59;5032228;28;20213;-71
2023/03/11 05:35:26;;;;;;;5.00;2.10;;;;;;;-0.88;88.16;99689.44;5027435;28;20229;-71
2023/03/11 05:37:53;;;;;;;4.63;2.00;;;;;;;-1.04;89.12;99689.53;5026815;28;20252;-71
2023/03/11 05:40:20;;;;;;;4.93;1.67;;;;;;;-1.19;90.23;99692.31;5030774;28;20278;-71
2023/03/11 05:42:47;;;;;;;4.53;1.80;;;;;;;-1.28;91.06;99697.03;5030799;28;21245;-70
2023/03/11 05:45:13;;;;;;;6.13;2.13;;;;;;;-1.41;92.03;99694.66;5030231;28;20205;-71
2023/03/11 05:47:41;;;;;;;5.47;2.20;;;;;;;-1.41;92.24;99700.75;5028621;28;20264;-71
2023/03/11 05:50:09;;;;;;;4.03;1.80;;;;;;;-1.49;92.46;99703.78;5029461;28;20253;-71
2023/03/11 05:52:35;;;;;;;3.73;1.70;;;;;;;-1.60;92.91;99695.47;5017308;28;20764;-71
2023/03/11 05:55:01;;;;;;;4.50;1.93;;;;;;;-1.66;93.71;99702.91;5021182;28;20231;-71
2023/03/11 05:57:28;;;;;;;5.10;2.13;;;;;;;-1.60;93.68;99706.75;5021056;28;20263;-71
2023/03/11 05:59:54;;;;;;;5.20;2.07;;;;;;;-1.60;93.62;99703.25;5018560;28;20221;-71
2023/03/11 06:02:22;;;;;;;3.47;1.87;;;;;;;-1.65;94.02;99704.69;5018054;28;20205;-71
2023/03/11 06:04:48;;;;;;;5.10;2.17;;;;;;;-1.58;93.58;99702.50;5022879;28;20224;-71
2023/03/11 06:07:15;;;;;;;7.97;2.00;;;;;;;-1.56;92.90;99699.09;5024219;28;20794;-71
2023/03/11 06:09:41;;;;;;;2.57;1.90;;;;;;;-1.54;92.85;99698.38;5019011;28;20565;-71
2023/03/11 06:12:07;;;;;;;7.70;2.30;;;;;;;-1.61;92.62;99709.22;5021252;28;20222;-71
2023/03/11 06:14:34;;;;;;;7.77;1.90;;;;;;;-1.63;92.81;99718.66;5024794;28;20223;-71
2023/03/11 06:17:00;;;;;;;4.83;1.77;;;;;;;-1.59;92.88;99711.13;5031632;28;20664;-71
2023/03/11 06:19:27;;;;;;;4.07;1.90;;;;;;;-1.54;92.50;99724.31;5021259;28;20208;-71
2023/03/11 06:21:54;;;;;;;5.83;2.07;;;;;;;-1.48;92.33;99723.75;5020540;28;20208;-71
2023/03/11 06:24:20;;;;;;;2.90;1.43;;;;;;;-1.28;90.93;99733.41;5023007;28;20749;-71
2023/03/11 06:26:50;;;;;;;3.83;1.90;;;;;;;-1.03;88.99;99738.97;5031214;28;20232;-71
2023/03/11 06:29:16;;;;;;;5.40;1.60;;;;;;;-0.92;87.79;99741.19;5014475;28;20244;-71
2023/03/11 06:31:43;;;;;;;7.10;1.67;;;;;;;-0.79;87.76;99741.88;5025313;28;20586;-71
2023/03/11 06:34:10;;;;;;;5.67;1.80;;;;;;;-0.11;84.45;99751.97;5014932;28;20210;-71
2023/03/11 06:36:37;;;;;;;8.23;2.03;;;;;;;0.48;81.53;99752.84;5017266;28;20732;-71
2023/03/11 06:39:03;;;;;;;5.57;2.00;;;;;;;1.05;78.05;99756.09;5021808;28;20210;-71
2023/03/11 06:41:33;;;;;;;4.60;1.40;;;;;;;1.51;74.45;99754.47;5031121;28;20623;-71
2023/03/11 06:43:59;;;;;;;8.20;1.70;;;;;;;1.52;73.87;99760.59;5024922;28;20197;-71
2023/03/11 06:46:26;;;;;;;4.60;1.70;;;;;;;1.10;75.31;99765.88;5023776;28;20208;-71
2023/03/11 06:48:53;;;;;;;4.23;1.83;;;;;;;1.06;76.10;99769.19;5030821;28;20211;-70
2023/03/11 06:51:20;;;;;;;7.30;1.90;;;;;;;1.32;74.95;99769.38;5019153;28;20774;-71
2023/03/11 06:53:51;;;;;;;6.90;1.50;;;;;;;1.49;74.13;99776.13;5024705;28;20279;-70
2023/03/11 06:56:19;;;;;;;2.83;1.53;;;;;;;1.33;72.89;99763.31;5023574;28;20299;-71
2023/03/11 06:58:45;;;;;;;2.40;1.50;;;;;;;1.44;74.13;99781.16;5031194;28;20190;-71
2023/03/11 07:01:17;;;;;;;6.70;1.63;;;;;;;1.71;73.05;99786.59;5025369;28;20712;-71
2023/03/11 07:03:45;;;;;;;5.47;1.30;;;;;;;2.04;69.80;99791.31;5031222;28;20202;-71
2023/03/11 07:06:14;;;;;;;4.57;1.50;;;;;;;2.42;68.90;99790.09;5029618;28;20241;-71
2023/03/11 07:08:40;;;;;;;4.43;1.40;;;;;;;2.15;68.80;99798.72;5013196;28;20213;-70
2023/03/11 07:11:13;;;;;;;3.23;1.50;;;;;;;2.19;69.37;99807.53;5025899;28;20225;-70
2023/03/11 07:13:40;;;;;;;5.97;1.20;;;;;;;2.31;69.24;99809.72;5023405;28;20211;-71
2023/03/11 07:16:09;;;;;;;6.10;1.70;;;;;;;2.27;68.64;99806.09;5024812;28;20207;-71
2023/03/11 07:18:37;;;;;;;8.77;1.67;;;;;;;2.19;67.81;99804.94;5025469;28;20674;-70
2023/03/11 07:21:06;;;;;;;3.40;1.17;;;;;;;2.05;67.73;99808.75;5023584;28;20223;-71
2023/03/11 07:23:33;;;;;;;4.73;1.37;;;;;;;2.06;68.58;99824.47;5028952;28;20206;-70
2023/03/11 07:26:00;;;;;;;4.83;1.30;;;;;;;2.20;68.45;99825.00;5026312;28;20230;-71
2023/03/11 07:28:28;;;;;;;3.00;1.23;;;;;;;2.46;68.29;99813.78;5020479;28;20306;-70
2023/03/11 07:30:54;;;;;;;4.53;1.40;;;;;;;2.54;67.80;99814.06;5019574;28;20223;-70
2023/03/11 07:33:22;;;;;;;3.83;1.33;;;;;;;2.56;66.04;99817.63;5022071;28;20236;-71
2023/03/11 07:35:50;;;;;;;3.20;1.40;;;;;;;2.48;65.68;99821.69;5027634;28;20729;-70
2023/03/11 07:38:18;;;;;;;3.50;1.30;;;;;;;2.27;66.71;99821.78;5028381;28;20253;-70
2023/03/11 07:40:45;;;;;;;2.20;1.20;;;;;;;2.36;66.79;99827.31;5025371;28;20594;-70
2023/03/11 07:43:11;;;;;;;3.50;1.27;;;;;;;2.41;66.68;99844.09;5013273;28;20402;-70
2023/03/11 07:45:37;;;;;;;6.30;1.30;;;;;;;2.37;66.07;99836.94;5015719;28;20288;-70
2023/03/11 07:48:04;;;;;;;3.70;1.30;;;;;;;2.43;65.61;99845.03;5020686;28;20314;-70
2023/03/11 07:50:30;;;;;;;7.70;1.40;;;;;;;2.65;66.17;99845.81;5015081;28;20251;-70
2023/03/11 07:52:57;;;;;;;4.97;1.57;;;;;;;2.76;65.91;99847.94;5023589;28;20285;-70
2023/03/11 07:55:23;;;;;;;6.60;1.30;;;;;;;3.03;65.36;99840.19;5028770;28;20253;-70
2023/03/11 07:57:51;;;;;;;2.17;0.90;;;;;;;3.13;64.26;99859.69;5025335;28;20632;-69
2023/03/11 08:00:18;;;;;;;2.73;1.13;;;;;;;3.19;61.84;99866.88;5017075;28;20216;-70
2023/03/11 08:02:45;;;;;;;6.37;1.53;;;;;;;3.26;62.43;99869.78;5030878;28;20602;-70
2023/03/11 08:05:11;;;;;;;2.30;1.40;;;;;;;3.08;62.81;99864.78;5023331;28;20224;-70
2023/03/11 08:07:38;;;;;;;4.67;1.60;;;;;;;3.18;63.57;99876.44;5023890;28;20696;-70
2023/03/11 08:10:04;;;;;;;3.10;1.20;;;;;;;3.36;62.84;99882.31;5017495;28;20621;-70
2023/03/11 08:12:31;;;;;;;3.53;1.27;;;;;;;3.55;62.83;99883.81;5019577;28;20199;-70
2023/03/11 08:14:57;;;;;;;4.87;1.30;;;;;;;3.72;61.01;99879.16;5023259;28;20204;-70
2023/03/11 08:17:23;;;;;;;4.40;1.53;;;;;;;3.58;58.59;99888.25;5020890;28;20210;-70
2023/03/11 08:19:50;;;;;;;5.83;1.30;;;;;;;3.53;59.75;99895.97;5024949;28;20220;-70
2023/03/11 08:22:16;;;;;;;3.70;2.00;;;;;;;3.46;60.54;99899.22;5015925;28;20227;-69
2023/03/11 08:24:42;;;;;;;2.03;1.03;;;;;;;3.50;60.19;99898.47;5026116;28;20746;-70
2023/03/11 08:27:11;;;;;;;3.73;1.40;;;;;;;3.63;60.55;99907.66;5021097;28;20199;-70
2023/03/11 08:29:37;;;;;;;3.90;1.20;;;;;;;3.64;58.69;99909.44;5018785;28;20249;-70
2023/03/11 08:32:06;;;;;;;2.77;1.00;;;;;;;3.62;56.86;99919.84;5027287;28;20198;-70
2023/03/11 08:34:33;;;;;;;3.77;1.27;;;;;;;3.76;59.26;99915.94;5028036;28;20222;-70
2023/03/11 08:37:00;;;;;;;2.83;1.30;;;;;;;3.84;60.10;99917.94;5020914;28;20740;-70
2023/03/11 08:39:29;;;;;;;5.33;1.10;;;;;;;4.06;57.56;99918.69;5020750;28;20192;-70
2023/03/11 08:41:56;;;;;;;3.33;1.20;;;;;;;4.02;56.67;99915.91;5023007;28;20307;-70
2023/03/11 08:44:22;;;;;;;3.37;1.30;;;;;;;3.87;57.44;99912.78;5019205;28;20205;-70
2023/03/11 08:46:48;;;;;;;2.87;1.30;;;;;;;3.71;57.22;99921.88;5023488;28;20545;-70
2023/03/11 08:49:15;;;;;;;3.70;1.50;;;;;;;3.51;57.78;99913.34;5015994;28;20220;-70
2023/03/11 08:51:41;;;;;;;3.53;1.50;;;;;;;3.50;57.73;99921.16;5029321;28;20227;-70
2023/03/11 08:54:07;;;;;;;3.03;1.30;;;;;;;3.45;58.85;99926.22;5024610;28;20205;-70
2023/03/11 08:56:34;;;;;;;2.47;1.10;;;;;;;3.74;56.00;99942.94;5023812;28;20191;-70
2023/03/11 08:59:00;;;;;;;5.00;1.27;;;;;;;3.92;56.82;99935.66;5017642;28;20204;-71
2023/03/11 09:01:28;;;;;;;2.67;1.30;;;;;;;3.96;55.46;99934.03;5014680;28;20222;-71
2023/03/11 09:03:54;;;;;;;4.83;1.40;;;;;;;4.03;56.64;99933.41;5024566;28;20259;-71
2023/03/11 09:06:21;;;;;;;3.07;1.20;;;;;;;4.29;54.04;99936.81;5020191;28;20544;-71
2023/03/11 09:08:47;;;;;;;3.73;1.30;;;;;;;4.25;54.91;99933.22;5015419;28;20248;-72
2023/03/11 09:11:15;;;;;;;3.53;1.40;;;;;;;4.25;55.24;99935.84;5015597;28;20280;-70
2023/03/11 09:13:42;;;;;;;3.00;1.33;;;;;;;4.22;56.34;99938.38;5023049;28;20200;-71
2023/03/11 09:16:14;;;;;;;3.60;1.20;;;;;;;4.06;56.19;99943.97;5027241;28;20207;-70
2023/03/11 09:18:41;;;;;;;5.97;1.30;;;;;;;3.71;56.53;99932.34;5027096;28;20193;-71
2023/03/11 09:21:08;;;;;;;2.57;1.20;;;;;;;3.51;57.41;99936.91;5018580;28;20257;-71
2023/03/11 09:23:35;;;;;;;4.53;1.40;;;;;;;3.60;57.58;99938.94;5014924;28;20230;-70
2023/03/11 09:26:01;;;;;;;2.20;1.30;;;;;;;3.55;55.97;99940.50;5021222;28;20195;-70
2023/03/11 09:28:27;;;;;;;3.67;1.50;;;;;;;3.61;57.49;99939.03;5018320;28;20721;-70
2023/03/11 09:30:54;;;;;;;6.90;1.90;;;;;;;3.64;57.15;99938.22;5022456;28;20245;-70
2023/03/11 09:33:20;;;;;;;3.17;1.23;;;;;;;3.70;56.48;99941.94;5013645;28;20683;-70
2023/03/11 09:35:47;;;;;;;3.27;1.40;;;;;;;3.75;55.04;99939.47;5025739;28;20200;-71
2023/03/11 09:38:13;;;;;;;3.00;1.60;;;;;;;3.85;54.63;99952.03;5022772;28;20227;-70
2023/03/11 09:41:05;;;;;;;6.70;1.50;;;;;;;3.89;52.97;99947.78;5021176;28;20340;-70
2023/03/11 09:43:49;;;;;;;2.90;1.20;;;;;;;4.19;53.08;99946.16;5026832;28;20203;-71
2023/03/11 09:46:49;;;;;;;2.30;1.10;;;;;;;4.60;52.48;99949.16;5015063;28;20210;-70
2023/03/11 09:49:53;;;;;;;3.27;1.20;;;;;;;5.49;50.52;99928.91;5026464;28;20224;-71
2023/03/11 09:52:37;;;;;;;3.73;1.30;;;;;;;5.50;47.66;99931.56;5018840;28;20205;-71
2023/03/11 09:55:05;;;;;;;2.93;1.10;;;;;;;5.28;46.86;99935.38;5025405;28;20204;-71
2023/03/11 09:57:35;;;;;;;5.07;1.17;;;;;;;5.10;47.82;99933.97;5017795;28;20212;-71
2023/03/11 10:00:05;;;;;;;3.70;1.40;;;;;;;5.01;48.28;99943.38;5018525;28;20251;-71
2023/03/11 10:02:34;;;;;;;4.03;1.40;;;;;;;4.88;47.13;99933.38;5023536;28;20207;-71
2023/03/11 10:05:24;;;;;;;4.77;1.40;;;;;;;4.70;48.16;99951.19;5017439;28;20207;-71
2023/03/11 10:08:11;;;;;;;2.93;1.17;;;;;;;4.27;47.40;99949.00;5021620;28;20630;-71
2023/03/11 10:10:46;;;;;;;3.30;1.40;;;;;;;4.57;48.05;99956.94;5028409;28;20226;-70
2023/03/11 10:13:45;;;;;;;2.57;0.97;;;;;;;5.19;47.88;99945.59;5025673;28;20229;-71
2023/03/11 10:16:37;;;;;;;2.90;1.00;;;;;;;5.61;46.11;99945.00;5027075;28;20205;-71
2023/03/11 10:19:22;;;;;;;5.13;1.23;;;;;;;6.11;44.13;99951.56;5030494;28;20200;-71
2023/03/11 10:21:59;;;;;;;3.43;1.43;;;;;;;6.51;43.26;99957.75;5027388;28;20215;-70
2023/03/11 10:24:59;;;;;;;3.13;1.30;;;;;;;6.48;43.29;99957.69;5023408;28;20203;-70
2023/03/11 10:27:50;;;;;;;4.07;1.30;;;;;;;5.39;45.13;99969.81;5026953;28;20195;-70
2023/03/11 10:30:30;;;;;;;1.67;1.50;;;;;;;5.43;46.22;99958.53;5031618;28;20578;-71
2023/03/11 10:33:11;;;;;;;5.87;1.57;;;;;;;5.66;46.31;99962.66;5026947;28;20273;-71
2023/03/11 10:35:44;;;;;;;7.07;1.63;;;;;;;5.43;45.57;99969.03;5019968;28;20200;-71
2023/03/11 10:38:19;;;;;;;2.57;1.17;;;;;;;5.46;46.07;99971.72;5030817;28;20236;-71
2023/03/11 10:40:48;;;;;;;4.33;1.30;;;;;;;5.27;45.03;99972.97;5023024;28;20218;-71
2023/03/11 10:43:24;;;;;;;2.93;1.20;;;;;;;5.62;45.86;99966.06;5022126;28;20682;-71
2023/03/11 10:45:52;;;;;;;3.27;1.50;;;;;;;6.14;45.41;99971.78;5028896;28;20226;-71
2023/03/11 10:48:20;;;;;;;5.13;1.53;;;;;;;5.73;44.15;99970.69;5027697;28;20681;-71
2023/03/11 10:50:57;;;;;;;3.03;1.30;;;;;;;5.63;44.32;99966.94;5022476;28;20285;-71
2023/03/11 10:53:24;;;;;;;2.70;1.30;;;;;;;5.63;44.36;99959.06;5025658;28;20207;-71
2023/03/11 10:55:53;;;;;;;3.83;1.50;;;;;;;5.85;44.52;99966.63;5027944;28;20196;-71
2023/03/11 10:58:28;;;;;;;2.83;1.30;;;;;;;5.67;43.62;99981.94;5022963;28;20192;-71
2023/03/11 11:01:00;;;;;;;1.83;1.10;;;;;;;5.29;43.26;99980.91;5021201;28;20225;-70
2023/03/11 11:03:27;;;;;;;3.13;1.00;;;;;;;5.49;42.01;99981.44;5031606;28;20226;-71
2023/03/11 11:06:00;;;;;;;3.13;1.03;;;;;;;5.88;42.92;99974.59;5029951;28;20781;-72
2023/03/11 11:08:27;;;;;;;2.67;1.20;;;;;;;6.19;41.39;99986.81;5024300;28;20227;-71
2023/03/11 11:10:58;;;;;;;2.87;1.20;;;;;;;6.12;38.72;99990.13;5023610;28;20251;-71
2023/03/11 11:13:31;;;;;;;4.83;1.30;;;;;;;6.17;39.49;99990.25;5029947;28;20207;-70
2023/03/11 11:16:00;;;;;;;4.57;1.50;;;;;;;6.33;39.86;100002.91;5016660;28;20236;-70
2023/03/11 11:18:43;;;;;;;4.33;1.20;;;;;;;5.90;40.08;100000.94;5026647;28;20197;-71
2023/03/11 11:21:30;;;;;;;3.93;1.43;;;;;;;5.98;39.97;99992.41;5030921;28;20243;-71
2023/03/11 11:24:23;;;;;;;2.50;1.30;;;;;;;6.52;39.69;99989.34;5024301;28;20228;-71
2023/03/11 11:27:21;;;;;;;3.73;1.30;;;;;;;5.67;40.80;99984.56;5025508;28;20246;-71
2023/03/11 11:30:12;;;;;;;1.83;0.90;;;;;;;5.60;41.97;99996.66;5027425;28;20231;-71
2023/03/11 11:32:39;;;;;;;2.43;1.10;;;;;;;6.37;41.16;99993.34;5028558;28;20200;-74
2023/03/11 11:35:11;;;;;;;3.27;1.00;;;;;;;6.73;40.50;99985.41;5022890;28;20575;-69
2023/03/11 11:37:45;;;;;;;4.73;1.40;;;;;;;6.78;40.17;99986.38;5022664;28;20207;-71
2023/03/11 11:40:14;;;;;;;1.83;1.33;;;;;;;6.37;41.98;100001.22;5021928;28;20216;-70
2023/03/11 11:42:47;;;;;;;3.70;1.57;;;;;;;6.20;43.44;100000.84;5026628;28;20228;-70
2023/03/11 11:45:22;;;;;;;3.13;1.40;;;;;;;5.98;44.28;100005.53;5026103;28;20238;-71
2023/03/11 11:47:56;;;;;;;4.47;1.30;;;;;;;5.87;43.41;100000.84;5030829;28;20231;-70
2023/03/11 11:50:41;;;;;;;3.77;1.50;;;;;;;5.73;44.29;100008.38;5023715;28;20506;-71